Time;durP1;ratioP1;P1;durP2;ratioP2;P2;SDS_P1;SDS_P2;PMS_P1;PMS_P2;Temp;Humidity;BMP_temperature;BMP_pressure;BME280_temperature;BME280_humidity;BME280_pressure;Samples;Min_cycle;Max_cycle;Signal;HPM_P1;HPM_P2
2023/05/14 00:02:20;;;;;;;6.47;3.42;;;;;;;14.66;52.02;150971.56;5064794;28;20141;-63
2023/05/14 00:04:46;;;;;;;5.55;3.42;;;;;;;14.65;51.91;150967.66;5064524;28;20040;-63
2023/05/14 00:07:11;;;;;;;9.45;3.85;;;;;;;14.55;52.41;150943.22;5060674;28;20124;-63
2023/05/14 00:09:37;;;;;;;9.95;3.35;;;;;;;14.47;52.11;150923.88;5044759;28;20041;-63
2023/05/14 00:12:03;;;;;;;4.57;3.30;;;;;;;14.52;52.57;150935.44;5058541;28;20028;-64
2023/05/14 00:14:28;;;;;;;3.92;3.20;;;;;;;14.49;52.95;150929.06;5049132;28;20180;-65
2023/05/14 00:16:54;;;;;;;6.18;3.53;;;;;;;14.44;53.22;150916.19;5056566;28;20021;-63
2023/05/14 00:19:20;;;;;;;12.27;4.47;;;;;;;14.29;53.14;150878.91;5064690;28;20321;-64
2023/05/14 00:21:46;;;;;;;9.07;3.63;;;;;;;14.29;54.20;150877.59;5064255;28;20182;-63
2023/05/14 00:24:12;;;;;;;8.30;3.60;;;;;;;14.11;53.45;150832.59;5044602;28;20053;-63
2023/05/14 00:26:38;;;;;;;6.85;3.75;;;;;;;13.91;54.19;150782.41;5059632;28;20048;-64
2023/05/14 00:29:03;;;;;;;7.15;4.13;;;;;;;14.19;53.65;150853.16;5053706;28;20040;-62
2023/05/14 00:31:29;;;;;;;5.97;3.70;;;;;;;14.09;54.54;150827.44;5038538;28;20052;-63
2023/05/14 00:33:55;;;;;;;7.22;3.70;;;;;;;14.09;54.13;150828.69;5064025;28;20024;-64
2023/05/14 00:36:20;;;;;;;7.55;3.88;;;;;;;14.05;54.99;150818.47;5042923;28;20262;-64
2023/05/14 00:38:46;;;;;;;6.82;3.45;;;;;;;13.99;55.27;150803.00;5060487;28;20036;-62
2023/05/14 00:41:11;;;;;;;11.43;4.30;;;;;;;13.95;54.45;150792.72;5070145;28;20088;-63
2023/05/14 00:43:37;;;;;;;6.18;3.72;;;;;;;13.96;55.17;150795.28;5039522;28;20033;-64
2023/05/14 00:46:03;;;;;;;6.15;3.75;;;;;;;13.81;54.93;150758.03;5057130;28;20084;-64
2023/05/14 00:48:28;;;;;;;6.78;3.20;;;;;;;13.90;54.89;150781.16;5064087;28;20279;-64
2023/05/14 00:50:54;;;;;;;10.73;3.58;;;;;;;13.83;56.08;150763.16;5063510;28;20025;-63
2023/05/14 00:53:20;;;;;;;6.15;3.45;;;;;;;13.76;56.11;150746.44;5051247;28;20322;-63
2023/05/14 00:55:48;;;;;;;6.32;3.08;;;;;;;13.82;56.27;150760.56;5051439;28;20079;-63
2023/05/14 00:58:14;;;;;;;6.32;3.58;;;;;;;13.71;56.46;150732.28;5060148;28;20061;-64
2023/05/14 01:00:40;;;;;;;9.30;4.32;;;;;;;13.75;55.56;150743.91;5045486;28;20048;-63
2023/05/14 01:03:07;;;;;;;7.13;3.40;;;;;;;13.62;56.27;150710.44;5044853;28;20030;-62
2023/05/14 01:05:46;;;;;;;7.22;3.30;;;;;;;13.69;55.73;150727.16;5058046;28;20068;-62
2023/05/14 01:08:17;;;;;;;4.18;3.20;;;;;;;13.67;56.75;150723.31;5063687;28;20039;-62
2023/05/14 01:10:51;;;;;;;9.55;3.15;;;;;;;13.68;57.12;150724.59;5063152;28;20091;-62
2023/05/14 01:13:38;;;;;;;5.70;3.17;;;;;;;13.57;57.51;150697.63;5059880;28;20033;-64
2023/05/14 01:16:08;;;;;;;8.43;3.22;;;;;;;13.59;56.68;150704.00;5048521;28;20021;-66
2023/05/14 01:18:34;;;;;;;5.32;2.90;;;;;;;13.52;57.01;150686.00;5063253;28;20067;-65
2023/05/14 01:21:00;;;;;;;6.13;2.72;;;;;;;13.53;57.33;150687.31;5062366;28;20040;-64
2023/05/14 01:23:26;;;;;;;6.72;3.03;;;;;;;13.53;57.82;150688.59;5062555;28;20028;-63
2023/05/14 01:25:51;;;;;;;4.97;3.13;;;;;;;13.43;57.88;150662.91;5061972;28;20040;-63
2023/05/14 01:28:33;;;;;;;8.00;3.30;;;;;;;13.33;57.40;150638.44;5062041;28;20407;-63
2023/05/14 01:31:10;;;;;;;6.38;3.17;;;;;;;13.37;58.29;150647.50;5060734;28;20059;-62
2023/05/14 01:33:40;;;;;;;5.13;2.95;;;;;;;13.39;58.22;150653.88;5007953;28;20025;-64
2023/05/14 01:36:06;;;;;;;5.20;3.25;;;;;;;13.22;58.91;150611.41;5060408;28;20201;-64
2023/05/14 01:38:33;;;;;;;4.90;2.80;;;;;;;13.32;58.18;150635.84;5048367;28;20021;-64
2023/05/14 01:41:00;;;;;;;7.65;2.78;;;;;;;13.25;59.00;150619.19;5065617;28;20063;-64
2023/05/14 01:43:26;;;;;;;5.63;2.55;;;;;;;13.29;58.29;150628.13;5063095;28;20052;-65
2023/05/14 01:45:54;;;;;;;6.20;2.97;;;;;;;13.19;58.71;150603.72;5062489;28;20127;-65
2023/05/14 01:48:19;;;;;;;3.60;2.95;;;;;;;13.09;59.05;150579.31;5063092;28;20035;-65
2023/05/14 01:50:45;;;;;;;4.18;2.63;;;;;;;13.17;58.41;150598.59;5049397;28;20036;-65
2023/05/14 01:53:11;;;;;;;6.88;2.72;;;;;;;13.04;58.31;150565.16;5062865;28;20087;-65
2023/05/14 01:55:36;;;;;;;5.25;2.85;;;;;;;13.04;58.18;150566.47;5062472;28;20036;-65
2023/05/14 01:58:02;;;;;;;4.95;3.10;;;;;;;13.05;58.30;150569.03;5062204;28;20324;-66
2023/05/14 02:00:27;;;;;;;3.47;2.70;;;;;;;13.05;58.51;150569.03;5070275;28;20024;-64
2023/05/14 02:02:53;;;;;;;4.55;2.65;;;;;;;12.99;58.68;150553.63;5061577;28;20028;-62
2023/05/14 02:05:19;;;;;;;4.25;2.70;;;;;;;13.02;59.44;150561.31;5062050;28;20045;-63
2023/05/14 02:07:44;;;;;;;6.03;2.92;;;;;;;12.94;58.75;150540.78;5037473;28;20113;-63
2023/05/14 02:10:10;;;;;;;7.03;2.97;;;;;;;12.96;59.30;150545.91;5046835;28;20045;-63
2023/05/14 02:12:36;;;;;;;7.75;3.35;;;;;;;12.90;59.83;150531.78;5062144;28;20078;-64
2023/05/14 02:15:05;;;;;;;6.82;3.13;;;;;;;12.97;59.05;150547.19;5044586;28;20057;-63
2023/05/14 02:17:31;;;;;;;7.43;2.90;;;;;;;12.96;58.84;150545.91;5059986;28;20135;-63
2023/05/14 02:19:56;;;;;;;4.90;2.70;;;;;;;13.00;59.17;150556.19;5062289;28;20044;-63
2023/05/14 02:22:22;;;;;;;6.00;2.78;;;;;;;12.97;59.25;150548.50;5058034;28;20029;-64
2023/05/14 02:24:48;;;;;;;3.97;2.70;;;;;;;12.98;59.26;150549.75;5042216;28;20330;-64
2023/05/14 02:27:14;;;;;;;4.63;3.38;;;;;;;13.03;60.13;150562.63;5061537;28;20036;-63
2023/05/14 02:29:39;;;;;;;7.20;3.58;;;;;;;13.03;59.34;150563.91;5046764;28;20311;-63
2023/05/14 02:32:05;;;;;;;7.53;2.90;;;;;;;13.13;59.82;150589.59;5045949;28;20075;-63
2023/05/14 02:34:33;;;;;;;6.15;4.32;;;;;;;13.23;59.25;150612.75;5047282;28;20306;-64
2023/05/14 02:36:58;;;;;;;3.65;2.78;;;;;;;13.29;58.83;150628.13;5061224;28;20057;-64
2023/05/14 02:39:24;;;;;;;3.15;2.60;;;;;;;13.30;58.52;150632.00;5048680;28;20031;-64
2023/05/14 02:41:49;;;;;;;3.88;2.50;;;;;;;13.38;58.64;150651.34;5065823;28;20032;-64
2023/05/14 02:44:15;;;;;;;5.32;2.95;;;;;;;13.27;59.05;150624.28;5050889;28;20033;-63
2023/05/14 02:46:41;;;;;;;8.18;3.17;;;;;;;13.39;58.51;150652.63;5053935;28;20322;-64
2023/05/14 02:49:07;;;;;;;5.75;3.17;;;;;;;13.42;58.07;150660.31;5043826;28;20053;-64
2023/05/14 02:51:33;;;;;;;4.10;2.95;;;;;;;13.53;58.16;150688.59;5061896;28;20032;-63
2023/05/14 02:53:58;;;;;;;6.65;2.80;;;;;;;13.58;58.79;150701.47;5044905;28;20044;-63
2023/05/14 02:56:25;;;;;;;3.05;2.72;;;;;;;13.68;58.57;150724.59;5053836;28;20025;-63
2023/05/14 02:58:51;;;;;;;4.30;2.53;;;;;;;13.74;57.51;150740.03;5073079;28;20086;-63
2023/05/14 03:01:17;;;;;;;3.58;2.58;;;;;;;13.73;57.45;150737.44;5061732;28;20025;-62
2023/05/14 03:03:43;;;;;;;6.93;2.60;;;;;;;13.76;57.41;150746.44;5061963;28;20025;-64
2023/05/14 03:06:09;;;;;;;5.15;3.00;;;;;;;13.60;56.97;150706.59;5061417;28;20072;-64
2023/05/14 03:08:35;;;;;;;4.70;2.67;;;;;;;13.77;58.04;150749.00;5048327;28;20337;-63
2023/05/14 03:11:01;;;;;;;4.40;2.53;;;;;;;13.52;58.11;150686.00;5052900;28;20033;-63
2023/05/14 03:13:26;;;;;;;9.98;3.03;;;;;;;13.56;57.56;150696.31;5057925;28;20021;-64
2023/05/14 03:15:55;;;;;;;5.07;2.70;;;;;;;13.69;57.99;150728.44;5045276;28;20022;-63
2023/05/14 03:18:21;;;;;;;4.35;3.10;;;;;;;13.46;56.68;150670.59;5041735;28;20049;-63
2023/05/14 03:20:47;;;;;;;3.63;2.35;;;;;;;13.68;56.69;150724.59;5056346;28;20064;-63
2023/05/14 03:23:13;;;;;;;4.95;2.40;;;;;;;13.69;58.14;150727.16;5051242;28;20063;-64
2023/05/14 03:25:39;;;;;;;5.82;2.50;;;;;;;13.64;55.85;150716.88;5047020;28;20135;-64
2023/05/14 03:28:05;;;;;;;4.88;2.60;;;;;;;13.72;56.18;150734.88;5026220;28;20040;-64
2023/05/14 03:30:30;;;;;;;5.97;2.30;;;;;;;13.67;57.02;150722.00;5042150;28;20033;-64
2023/05/14 03:32:56;;;;;;;5.18;2.63;;;;;;;13.64;56.61;150715.63;5047112;28;20039;-63
2023/05/14 03:35:22;;;;;;;2.63;2.40;;;;;;;13.70;56.76;150729.75;5061395;28;20033;-64
2023/05/14 03:37:48;;;;;;;4.70;2.45;;;;;;;13.69;56.18;150727.16;5054491;28;20025;-64
2023/05/14 03:40:14;;;;;;;4.50;2.47;;;;;;;13.72;56.71;150736.13;5059139;28;20037;-64
2023/05/14 03:42:39;;;;;;;4.32;2.67;;;;;;;14.02;56.15;150810.72;5043580;28;20025;-63
2023/05/14 03:45:05;;;;;;;7.88;2.45;;;;;;;14.14;55.45;150841.59;5049338;28;20029;-63
2023/05/14 03:47:31;;;;;;;2.47;2.28;;;;;;;14.25;56.05;150867.28;5061153;28;20029;-65
2023/05/14 03:49:57;;;;;;;4.18;2.10;;;;;;;13.95;55.67;150794.03;5053303;28;20053;-64
2023/05/14 03:52:22;;;;;;;3.20;2.22;;;;;;;14.01;55.54;150806.84;5058965;28;20028;-64
2023/05/14 03:54:48;;;;;;;4.07;2.72;;;;;;;14.26;55.25;150869.88;5064755;28;20231;-64
2023/05/14 03:57:13;;;;;;;5.93;2.65;;;;;;;14.23;54.87;150862.16;5064309;28;20070;-65
2023/05/14 03:59:39;;;;;;;4.80;2.30;;;;;;;14.54;54.81;150940.63;5064352;28;20041;-64
2023/05/14 04:02:05;;;;;;;3.67;2.40;;;;;;;14.77;54.67;150997.28;5064659;28;20349;-62
2023/05/14 04:04:30;;;;;;;7.07;2.75;;;;;;;14.60;54.38;150956.03;5064754;28;20025;-62
2023/05/14 04:06:56;;;;;;;3.38;2.60;;;;;;;14.71;54.18;150983.13;5064241;28;20068;-62
2023/05/14 04:09:22;;;;;;;5.28;2.88;;;;;;;14.65;54.68;150967.66;5065003;28;20029;-61
2023/05/14 04:11:49;;;;;;;2.67;2.47;;;;;;;14.54;54.52;150940.63;5064377;28;20269;-61
2023/05/14 04:14:14;;;;;;;4.07;2.60;;;;;;;14.59;54.08;150953.50;5073094;28;20033;-63
2023/05/14 04:16:40;;;;;;;3.75;2.22;;;;;;;14.36;54.84;150894.31;5058827;28;20082;-62
2023/05/14 04:19:06;;;;;;;3.95;2.38;;;;;;;14.46;54.45;150920.03;5045397;28;20029;-62
2023/05/14 04:21:31;;;;;;;4.35;2.50;;;;;;;14.39;54.07;150903.28;5064347;28;20044;-61
2023/05/14 04:23:57;;;;;;;3.50;2.25;;;;;;;14.61;54.97;150957.34;5048422;28;20021;-62
2023/05/14 04:26:23;;;;;;;4.97;2.55;;;;;;;14.52;55.04;150935.44;5055435;28;20071;-62
2023/05/14 04:28:48;;;;;;;6.63;2.70;;;;;;;14.64;54.54;150966.38;5064183;28;20298;-63
2023/05/14 04:31:14;;;;;;;7.00;2.65;;;;;;;14.70;54.27;150980.53;5062718;28;20025;-62
2023/05/14 04:33:40;;;;;;;2.75;2.50;;;;;;;14.71;54.09;150981.81;5044153;28;20033;-61
2023/05/14 04:36:06;;;;;;;5.10;2.42;;;;;;;14.79;54.00;151002.41;5061031;28;20037;-61
2023/05/14 04:38:31;;;;;;;3.13;2.10;;;;;;;14.67;53.44;150974.09;5051762;28;20222;-62
2023/05/14 04:40:57;;;;;;;7.13;2.50;;;;;;;14.91;53.84;151032.03;5067879;28;20067;-62
2023/05/14 04:43:23;;;;;;;2.38;2.13;;;;;;;15.19;53.89;151102.75;5043546;28;20211;-62
2023/05/14 04:45:48;;;;;;;8.52;3.00;;;;;;;14.89;53.55;151028.13;5055361;28;20054;-63
2023/05/14 04:48:14;;;;;;;5.25;2.67;;;;;;;15.04;52.58;151065.47;5063432;28;20037;-63
2023/05/14 04:50:40;;;;;;;5.60;2.42;;;;;;;15.09;52.11;151078.34;5034727;28;20029;-62
2023/05/14 04:53:05;;;;;;;3.45;2.28;;;;;;;15.52;52.70;151185.16;5055248;28;20048;-62
2023/05/14 04:55:31;;;;;;;3.13;2.35;;;;;;;16.08;51.58;151324.25;5047474;28;20108;-62
2023/05/14 04:57:56;;;;;;;6.03;2.53;;;;;;;16.23;49.96;151362.84;5063750;28;20028;-62
2023/05/14 05:00:22;;;;;;;4.53;2.20;;;;;;;16.31;49.82;151383.47;5063015;28;20021;-62
2023/05/14 05:02:48;;;;;;;4.72;2.30;;;;;;;16.45;50.89;151416.97;5049666;28;20040;-62
2023/05/14 05:05:13;;;;;;;3.42;2.10;;;;;;;16.63;50.04;151463.34;5062405;28;20068;-63
2023/05/14 05:07:39;;;;;;;4.32;2.45;;;;;;;16.73;49.48;151489.09;5062989;28;20044;-60
2023/05/14 05:10:05;;;;;;;3.35;2.10;;;;;;;16.73;48.73;151489.09;5045422;28;20290;-63
2023/05/14 05:12:31;;;;;;;3.67;2.13;;;;;;;17.00;48.82;151554.84;5059901;28;20084;-65
2023/05/14 05:14:56;;;;;;;3.08;2.38;;;;;;;17.14;47.78;151589.66;5063294;28;20079;-62
2023/05/14 05:17:23;;;;;;;4.03;2.03;;;;;;;17.54;46.08;151690.16;5063166;28;20013;-62
2023/05/14 05:19:49;;;;;;;6.38;2.55;;;;;;;17.91;46.27;151784.34;5063492;28;20025;-62
2023/05/14 05:22:15;;;;;;;3.42;1.70;;;;;;;18.30;45.67;151881.06;5044147;28;20040;-63
2023/05/14 05:24:40;;;;;;;2.13;1.90;;;;;;;18.39;44.39;151902.97;5042030;28;20213;-62
2023/05/14 05:27:06;;;;;;;3.55;2.20;;;;;;;17.08;44.04;151576.75;5059677;28;20021;-62
2023/05/14 05:29:32;;;;;;;3.92;1.80;;;;;;;17.46;44.88;151669.53;5051076;28;20076;-63
2023/05/14 05:31:57;;;;;;;4.05;1.75;;;;;;;17.69;45.64;151727.56;5055691;28;20313;-63
2023/05/14 05:34:23;;;;;;;2.92;2.03;;;;;;;17.63;44.92;151713.38;5063055;28;20167;-63
2023/05/14 05:36:49;;;;;;;2.88;1.92;;;;;;;17.85;45.43;151767.53;5062695;28;20088;-63
2023/05/14 05:39:14;;;;;;;3.22;1.90;;;;;;;17.87;43.96;151772.66;5064936;28;20217;-63
2023/05/14 05:41:42;;;;;;;3.75;1.90;;;;;;;18.21;44.54;151857.81;5070026;28;20043;-63
2023/05/14 05:44:08;;;;;;;4.55;1.88;;;;;;;18.20;43.83;151856.56;5036776;28;20035;-63
2023/05/14 05:46:33;;;;;;;6.38;2.00;;;;;;;18.07;44.63;151824.31;5059770;28;20254;-64
2023/05/14 05:48:59;;;;;;;1.95;1.77;;;;;;;18.28;43.55;151875.88;5062717;28;20071;-63
2023/05/14 05:51:24;;;;;;;1.92;1.55;;;;;;;18.09;42.66;151828.19;5052150;28;20328;-64
2023/05/14 05:53:50;;;;;;;2.25;2.00;;;;;;;17.70;42.10;151731.44;5062592;28;20086;-63
2023/05/14 05:56:16;;;;;;;3.78;1.70;;;;;;;17.78;42.82;151750.75;5062360;28;20028;-63
2023/05/14 05:58:42;;;;;;;3.53;1.60;;;;;;;17.93;43.75;151789.50;5059769;28;20030;-63
2023/05/14 06:01:07;;;;;;;5.40;1.70;;;;;;;18.07;44.15;151823.00;5061712;28;20028;-62
2023/05/14 06:03:33;;;;;;;1.75;1.60;;;;;;;18.21;43.54;151859.16;5024995;28;20136;-62
2023/05/14 06:05:58;;;;;;;2.15;1.80;;;;;;;18.16;43.83;151844.97;5057474;28;20144;-62
2023/05/14 06:08:24;;;;;;;12.05;2.10;;;;;;;17.96;42.57;151795.94;5050695;28;20079;-64
2023/05/14 06:10:49;;;;;;;3.35;1.77;;;;;;;18.14;42.96;151839.78;5052324;28;20040;-63
2023/05/14 06:13:15;;;;;;;3.08;1.40;;;;;;;18.09;42.50;151829.44;5061400;28;20044;-63
2023/05/14 06:15:41;;;;;;;1.75;1.50;;;;;;;18.14;42.24;151839.78;5044422;28;20037;-64
2023/05/14 06:18:07;;;;;;;2.53;1.60;;;;;;;17.83;40.55;151762.34;5045838;28;20036;-63
2023/05/14 06:20:33;;;;;;;2.42;1.60;;;;;;;17.90;41.87;151780.41;5053605;28;20079;-64
2023/05/14 06:22:58;;;;;;;2.35;1.70;;;;;;;17.84;42.17;151764.94;5044448;28;20206;-63
2023/05/14 06:25:24;;;;;;;2.75;1.70;;;;;;;18.07;41.67;151824.31;5060520;28;20032;-63
2023/05/14 06:27:49;;;;;;;3.22;1.63;;;;;;;18.19;41.81;151852.69;5061481;28;20029;-63
2023/05/14 06:30:15;;;;;;;1.80;1.60;;;;;;;17.76;41.64;151746.88;5045303;28;20033;-64
2023/05/14 06:32:41;;;;;;;3.15;1.38;;;;;;;17.95;41.37;151793.34;5061729;28;20031;-65
2023/05/14 06:35:07;;;;;;;1.40;1.30;;;;;;;17.65;39.83;151717.25;5061920;28;20120;-63
2023/05/14 06:37:32;;;;;;;1.50;1.40;;;;;;;17.55;40.18;151692.75;5058269;28;20084;-63
2023/05/14 06:39:58;;;;;;;5.38;1.50;;;;;;;17.75;41.21;151744.31;5057650;28;20336;-64
2023/05/14 06:42:24;;;;;;;2.97;1.42;;;;;;;17.30;39.83;151630.91;5066729;28;20029;-62
2023/05/14 06:44:49;;;;;;;1.65;1.42;;;;;;;17.43;41.12;151663.13;5072077;28;20143;-64
2023/05/14 06:47:15;;;;;;;2.10;1.40;;;;;;;17.68;41.42;151726.25;5069126;28;20017;-64
2023/05/14 06:49:41;;;;;;;7.15;4.97;;;;;;;17.53;40.11;151687.56;5071971;28;20321;-64
2023/05/14 06:52:06;;;;;;;2.03;1.70;;;;;;;17.30;40.94;151630.91;5070376;28;20024;-65
2023/05/14 06:54:32;;;;;;;2.38;1.80;;;;;;;17.37;41.46;151647.63;5067817;28;20028;-64
2023/05/14 06:56:58;;;;;;;1.80;1.40;;;;;;;17.43;41.55;151664.41;5067967;28;20460;-63
2023/05/14 06:59:23;;;;;;;3.13;1.58;;;;;;;16.96;41.68;151544.53;5070368;28;20021;-64
2023/05/14 07:01:49;;;;;;;2.22;1.52;;;;;;;17.08;41.62;151576.75;5064665;28;20337;-64
2023/05/14 07:04:14;;;;;;;8.02;1.80;;;;;;;17.18;40.90;151599.97;5060264;28;20028;-63
2023/05/14 07:06:40;;;;;;;5.45;1.60;;;;;;;17.22;40.82;151610.28;5071374;28;20039;-63
2023/05/14 07:09:06;;;;;;;3.53;1.45;;;;;;;16.79;41.07;151501.97;5077205;28;20104;-64
2023/05/14 07:11:32;;;;;;;5.22;1.50;;;;;;;16.85;41.17;151518.72;5065686;28;20089;-64
2023/05/14 07:13:58;;;;;;;2.45;1.60;;;;;;;17.00;40.54;151556.16;5040375;28;20037;-63
2023/05/14 07:16:24;;;;;;;1.33;1.20;;;;;;;17.14;40.21;151589.66;5053024;28;20020;-63
2023/05/14 07:18:50;;;;;;;1.25;1.15;;;;;;;17.55;40.04;151692.75;5070580;28;20313;-63
2023/05/14 07:21:15;;;;;;;3.20;1.50;;;;;;;17.71;39.81;151733.97;5054832;28;20039;-64
2023/05/14 07:23:41;;;;;;;3.20;1.23;;;;;;;17.50;38.88;151679.84;5061145;28;20025;-64
2023/05/14 07:26:07;;;;;;;1.50;1.20;;;;;;;17.57;40.06;151699.22;5061198;28;20071;-63
2023/05/14 07:28:33;;;;;;;1.85;1.30;;;;;;;17.68;40.26;151726.25;5060635;28;20022;-63
2023/05/14 07:30:59;;;;;;;1.80;1.20;;;;;;;18.00;39.06;151804.94;5049767;28;20029;-63
2023/05/14 07:33:25;;;;;;;1.40;1.30;;;;;;;18.04;39.99;151816.59;5065039;28;20025;-63
2023/05/14 07:35:51;;;;;;;2.10;1.27;;;;;;;17.77;41.40;151748.16;5064776;28;20206;-63
2023/05/14 07:38:18;;;;;;;2.78;1.50;;;;;;;17.74;40.87;151740.44;5047436;28;20071;-63
2023/05/14 07:40:43;;;;;;;4.95;1.48;;;;;;;17.47;41.14;151672.13;5073701;28;20041;-64
2023/05/14 07:43:09;;;;;;;2.47;1.70;;;;;;;17.46;42.24;151669.53;5065424;28;20032;-64
2023/05/14 07:45:36;;;;;;;3.92;1.70;;;;;;;17.37;41.70;151648.94;5055884;28;20083;-64
2023/05/14 07:48:01;;;;;;;7.35;1.65;;;;;;;17.26;41.70;151620.59;5078117;28;20031;-63
2023/05/14 07:50:27;;;;;;;3.63;1.50;;;;;;;17.38;41.71;151651.50;5074365;28;20071;-63
2023/05/14 07:52:52;;;;;;;3.85;1.80;;;;;;;17.43;41.98;151664.41;5070191;28;20251;-64
2023/05/14 07:55:18;;;;;;;8.50;1.80;;;;;;;17.39;42.35;151652.81;5064193;28;20260;-64
2023/05/14 07:57:45;;;;;;;2.42;1.30;;;;;;;17.40;41.75;151655.34;5067379;28;20033;-63
2023/05/14 08:00:11;;;;;;;2.03;1.33;;;;;;;17.39;41.93;151652.81;5069629;28;20372;-63
2023/05/14 08:02:36;;;;;;;3.28;1.50;;;;;;;17.10;40.76;151579.34;5070719;28;20198;-63
2023/05/14 08:05:03;;;;;;;4.35;1.50;;;;;;;17.07;41.31;151572.88;5071507;28;20064;-62
2023/05/14 08:07:29;;;;;;;3.33;1.52;;;;;;;17.24;41.43;151615.41;5069278;28;20139;-63
2023/05/14 08:09:55;;;;;;;2.13;1.50;;;;;;;17.28;41.67;151624.44;5072391;28;20025;-64
2023/05/14 08:12:21;;;;;;;1.80;1.35;;;;;;;17.19;41.30;151603.81;5074387;28;20048;-65
2023/05/14 08:14:46;;;;;;;4.38;1.67;;;;;;;17.62;41.01;151710.81;5072341;28;20043;-64
2023/05/14 08:17:12;;;;;;;1.80;1.30;;;;;;;17.84;42.64;151766.25;5072562;28;20017;-64
2023/05/14 08:19:38;;;;;;;4.93;1.77;;;;;;;18.00;40.07;151804.94;5068528;28;20317;-64
2023/05/14 08:22:04;;;;;;;3.58;1.30;;;;;;;17.60;38.91;151705.66;5063962;28;20033;-64
2023/05/14 08:24:32;;;;;;;5.47;1.60;;;;;;;17.46;39.42;151670.84;5051498;28;20048;-69
2023/05/14 08:26:58;;;;;;;1.98;1.23;;;;;;;17.43;39.86;151664.41;5063970;28;20033;-66
2023/05/14 08:29:24;;;;;;;2.25;1.73;;;;;;;17.31;40.80;151632.19;5060047;28;20309;-66
2023/05/14 08:31:50;;;;;;;5.63;2.28;;;;;;;17.29;41.24;151627.00;5041454;28;20283;-65
2023/05/14 08:34:16;;;;;;;3.42;1.35;;;;;;;17.13;40.71;151587.06;5063069;28;20029;-65
2023/05/14 08:36:42;;;;;;;3.15;1.23;;;;;;;16.87;41.30;151523.91;5049247;28;20060;-65
2023/05/14 08:39:07;;;;;;;2.17;1.48;;;;;;;17.46;40.79;151669.53;5064830;28;20245;-64
2023/05/14 08:41:33;;;;;;;4.00;1.38;;;;;;;17.50;40.52;151679.84;5078354;28;20035;-65
2023/05/14 08:44:05;;;;;;;2.25;1.42;;;;;;;17.50;40.01;151679.84;5069465;28;20047;-64
2023/05/14 08:46:32;;;;;;;1.80;1.25;;;;;;;17.74;39.78;151740.44;5071557;28;20051;-64
2023/05/14 08:49:31;;;;;;;2.17;1.60;;;;;;;17.39;39.96;151654.06;5072719;28;20024;-65
2023/05/14 08:51:58;;;;;;;2.08;1.30;;;;;;;17.74;39.29;151740.44;5062574;28;20060;-64
2023/05/14 08:54:25;;;;;;;1.75;1.40;;;;;;;17.52;38.75;151686.31;5076891;28;20028;-65
2023/05/14 08:56:52;;;;;;;3.55;1.77;;;;;;;17.54;39.57;151690.16;5076456;28;20298;-66
2023/05/14 08:59:18;;;;;;;3.00;2.45;;;;;;;17.67;39.83;151723.72;5076826;28;20025;-65
2023/05/14 09:01:47;;;;;;;3.83;1.73;;;;;;;17.60;39.86;151705.66;5069574;28;20371;-66
2023/05/14 09:04:14;;;;;;;2.20;1.50;;;;;;;17.66;40.95;151719.81;5063260;28;20039;-65
2023/05/14 09:06:42;;;;;;;3.05;1.70;;;;;;;17.55;40.11;151692.75;5058450;28;20095;-64
2023/05/14 09:09:09;;;;;;;4.00;1.80;;;;;;;17.42;39.79;151661.81;5074038;28;20032;-65
2023/05/14 09:11:45;;;;;;;2.28;1.45;;;;;;;17.48;39.44;151674.72;5070382;28;20099;-64
2023/05/14 09:14:11;;;;;;;5.18;2.72;;;;;;;17.68;40.16;151724.97;5073755;28;20057;-65
2023/05/14 09:16:38;;;;;;;2.28;1.50;;;;;;;17.77;40.69;151749.47;5070737;28;20197;-64
2023/05/14 09:19:06;;;;;;;7.30;1.67;;;;;;;17.90;40.90;151780.41;5072141;28;20031;-64
2023/05/14 09:21:32;;;;;;;6.30;1.27;;;;;;;17.96;39.86;151794.63;5072605;28;20025;-65
2023/05/14 09:23:58;;;;;;;1.90;1.80;;;;;;;17.91;39.58;151783.03;5073782;28;20100;-64
2023/05/14 09:26:25;;;;;;;1.40;1.30;;;;;;;17.81;39.42;151758.47;5070679;28;20025;-66
2023/05/14 09:28:55;;;;;;;2.45;1.33;;;;;;;17.90;39.54;151781.75;5067819;28;20041;-64
2023/05/14 09:31:20;;;;;;;1.83;1.30;;;;;;;17.93;40.14;151789.50;5072142;28;20044;-65
2023/05/14 09:33:50;;;;;;;4.10;1.58;;;;;;;18.02;40.07;151810.13;5072852;28;20606;-66
2023/05/14 09:36:16;;;;;;;3.00;1.27;;;;;;;18.01;39.60;151807.53;5067066;28;20029;-65
2023/05/14 09:38:42;;;;;;;2.03;1.23;;;;;;;17.98;39.43;151801.09;5051750;28;20025;-65
2023/05/14 09:41:08;;;;;;;3.40;1.30;;;;;;;17.88;38.38;151776.53;5071197;28;20083;-63
2023/05/14 09:43:33;;;;;;;4.57;3.17;;;;;;;17.72;37.00;151736.56;5070095;28;20206;-64
2023/05/14 09:45:59;;;;;;;4.90;1.90;;;;;;;17.87;37.21;151772.66;5067741;28;20076;-64
2023/05/14 09:48:25;;;;;;;2.95;1.38;;;;;;;18.06;38.12;151820.44;5071909;28;20340;-64
2023/05/14 09:50:51;;;;;;;1.98;1.30;;;;;;;18.18;38.85;151851.38;5069754;28;20330;-64
2023/05/14 09:53:17;;;;;;;2.30;1.30;;;;;;;18.16;38.98;151846.22;5072109;28;20056;-66
2023/05/14 09:55:44;;;;;;;1.40;1.30;;;;;;;18.03;37.98;151814.00;5062278;28;20599;-64
2023/05/14 09:58:10;;;;;;;3.38;1.40;;;;;;;17.98;39.22;151801.09;5062651;28;20037;-66
2023/05/14 10:00:36;;;;;;;2.83;1.02;;;;;;;17.86;39.20;151771.41;5061893;28;20029;-65
2023/05/14 10:03:06;;;;;;;3.38;1.42;;;;;;;17.90;38.48;151780.41;5031163;28;20033;-65
2023/05/14 10:05:36;;;;;;;2.67;1.13;;;;;;;17.98;39.06;151801.09;5030291;28;20111;-64
2023/05/14 10:08:12;;;;;;;2.47;1.30;;;;;;;17.97;38.07;151798.53;5037155;28;20560;-65
2023/05/14 10:10:38;;;;;;;5.60;1.20;;;;;;;17.92;38.00;151785.63;5031003;28;20059;-65
2023/05/14 10:13:10;;;;;;;1.80;1.00;;;;;;;17.87;38.67;151772.66;5056591;28;20097;-65
2023/05/14 10:15:46;;;;;;;3.92;1.42;;;;;;;18.17;38.97;151848.81;5043914;28;20044;-65
2023/05/14 10:18:18;;;;;;;1.27;1.00;;;;;;;18.11;38.45;151834.63;5026555;28;20047;-64
2023/05/14 10:20:48;;;;;;;2.63;1.20;;;;;;;18.08;38.35;151826.88;5032444;28;20037;-66
2023/05/14 10:23:13;;;;;;;1.83;1.30;;;;;;;18.21;39.08;151857.81;5064101;28;20412;-64
2023/05/14 10:25:40;;;;;;;3.97;1.23;;;;;;;18.24;38.82;151866.88;5048239;28;20029;-65
2023/05/14 10:28:06;;;;;;;8.10;1.83;;;;;;;18.14;39.25;151839.78;5051207;28;20021;-66
2023/05/14 10:30:31;;;;;;;1.60;1.50;;;;;;;18.01;38.13;151807.53;5051493;28;20052;-65
2023/05/14 10:33:15;;;;;;;2.30;1.20;;;;;;;18.02;37.85;151811.41;5046397;28;20028;-65
2023/05/14 10:36:01;;;;;;;1.48;1.35;;;;;;;17.97;38.56;151798.53;5041770;28;20030;-66
2023/05/14 10:38:36;;;;;;;5.05;1.45;;;;;;;17.98;39.66;151801.09;5033635;28;20026;-65
2023/05/14 10:41:04;;;;;;;5.30;1.88;;;;;;;17.92;39.21;151785.63;5049469;28;20090;-65
2023/05/14 10:43:34;;;;;;;3.58;1.30;;;;;;;17.93;40.02;151789.50;5043898;28;20108;-65
2023/05/14 10:46:00;;;;;;;5.28;1.40;;;;;;;17.98;40.24;151801.09;5024176;28;20115;-65
2023/05/14 10:48:26;;;;;;;3.13;1.48;;;;;;;17.92;39.73;151785.63;5041685;28;20033;-66
2023/05/14 10:50:52;;;;;;;4.22;1.33;;;;;;;17.79;39.32;151752.06;5050207;28;20041;-65
2023/05/14 10:53:18;;;;;;;2.22;1.42;;;;;;;17.91;39.63;151783.03;5042592;28;20029;-64
2023/05/14 10:55:45;;;;;;;1.65;1.40;;;;;;;17.90;39.32;151781.75;5024457;28;20091;-64
2023/05/14 10:58:11;;;;;;;2.53;1.17;;;;;;;17.99;40.52;151802.41;5041117;28;20035;-65
2023/05/14 11:00:37;;;;;;;1.33;1.23;;;;;;;18.11;40.32;151833.31;5040753;28;20025;-65
2023/05/14 11:03:04;;;;;;;3.40;1.30;;;;;;;18.03;39.91;151814.00;5030641;28;20079;-64
2023/05/14 11:05:31;;;;;;;2.10;1.17;;;;;;;17.98;38.68;151801.09;5042045;28;20213;-65
2023/05/14 11:07:57;;;;;;;5.00;1.33;;;;;;;18.09;40.11;151829.44;5061559;28;20038;-64
2023/05/14 11:10:28;;;;;;;5.88;1.40;;;;;;;18.14;39.07;151839.78;5052199;28;20020;-64
2023/05/14 11:12:55;;;;;;;1.50;1.40;;;;;;;18.05;38.90;151819.13;5045770;28;20037;-64
2023/05/14 11:15:23;;;;;;;3.22;1.30;;;;;;;18.22;39.57;151861.69;5061407;28;20033;-65
2023/05/14 11:17:50;;;;;;;1.40;1.30;;;;;;;18.06;39.10;151820.44;5054061;28;20314;-64
2023/05/14 11:20:17;;;;;;;2.17;1.65;;;;;;;18.24;39.70;151866.88;5051724;28;20053;-64
2023/05/14 11:22:43;;;;;;;4.38;1.48;;;;;;;18.36;40.33;151896.53;5062201;28;20033;-64